Airfield :
LOGIN :

Register | Disclaimer

   EN    FR    IT 

 










Legend :    VFR   Marginal VFR   IFR   Intensive IFR   Very Intensive IFR
Visi :
Ceiling :
>= 8 km
>= 3000ft
5 to 8 km
1000 to 3000 ft
1500m to 5 km
500 to 1000 ft
800 to 1500m
200 to 500 ft
< 800m
< 200 ft
Symbols :   Thunderstorms  Fog  Heavy snow  Heavy precipitations  Wind > 20 kt
SIGMETs :     Misc.  Thunderstorms  Icing  Turbulence  Mountain Waves  Volcanic Ashes






- Airport Elevation : 436 ft
- IATA code : BTS


LZIB - Bratislava

CURRENT METAR :
  • 300730Z 35014KT 9999 FEW041 01/M08 Q1023 WS ALL RWY NOSIG

EXPIRED METARs :
  • 300700Z 01012KT 9999 SCT040 01/M08 Q1022 WS ALL RWY NOSIG
  • 300630Z 36013KT 9999 SCT038 01/M08 Q1022 WS ALL RWY NOSIG
  • 300600Z 35014G24KT 9999 SCT036 01/M07 Q1022 WS R31 NOSIG
  • 300530Z 35015KT 9999 FEW034 01/M06 Q1021 WS ALL RWY NOSIG
  • 300500Z 35016KT 9999 FEW033 01/M06 Q1021 WS ALL RWY NOSIG

TAF TAF LZIB
Valid from the 30 at 06:00 until the 31 at 06:00 UTC


300500Z 3006/3106 34012KT 9999 FEW035 BKN070
TEMPO 3006/3018 35017G32KT
TEMPO 3008/3012 -SHSN SCT028 BKN050
BECMG 3018/3020 CAVOK
BECMG 3022/3100 04006KT
BECMG 3100/3102 VRB02KT



MET'MAP, your aeronautical weather chart ! - Copyright ORBIFLY December 2007 - Disclaimer

ORBIFLY MET'MAP TEAM :

Programming & Development : Alexandra Zaïnal
Concept & original design : Baudouin d'Aumeries
Assistance for programming : Marc-Olivier Méhu
Technical & hardware support : Manuel Goepfert

Contact : metmap@orbifly.com




SOURCES & CREDITS :

   NOAA